createdAt,value
2018-06-24T00:04:31.105Z,95.60
2018-06-24T00:06:59.414Z,95.60
2018-06-24T00:09:28.616Z,95.50
2018-06-24T00:11:57.025Z,95.30
2018-06-24T00:14:25.147Z,95.30
2018-06-24T00:16:53.574Z,95.40
2018-06-24T00:19:21.744Z,95.50
2018-06-24T00:21:49.900Z,95.30
2018-06-24T00:24:18.658Z,95.20
2018-06-24T00:26:46.954Z,95.10
2018-06-24T00:29:15.046Z,95.10
2018-06-24T00:31:44.876Z,95.20
2018-06-24T00:34:13.034Z,95.20
2018-06-24T00:36:41.330Z,95.30
2018-06-24T00:39:10.598Z,95.20
2018-06-24T00:41:39.306Z,95.50
2018-06-24T00:44:07.448Z,95.90
2018-06-24T00:46:35.610Z,95.80
2018-06-24T00:49:03.800Z,96.40
2018-06-24T00:51:31.962Z,96.50
2018-06-24T00:54:00.127Z,96.50
2018-06-24T00:56:28.304Z,96.50
2018-06-24T00:58:56.483Z,96.20
2018-06-24T01:01:25.482Z,96.30
2018-06-24T01:03:53.654Z,96.30
2018-06-24T01:06:21.928Z,95.90
2018-06-24T01:08:50.822Z,95.80
2018-06-24T01:11:19.748Z,95.60
2018-06-24T01:13:47.974Z,95.60
2018-06-24T01:16:16.126Z,95.70
2018-06-24T01:21:12.231Z,96.20
2018-06-24T01:23:40.439Z,96.10
2018-06-24T01:26:08.744Z,95.70
2018-06-24T01:28:36.937Z,95.80
2018-06-24T01:31:05.480Z,96.10
2018-06-24T01:33:34.372Z,96.40
2018-06-24T01:36:04.839Z,96.60
2018-06-24T01:38:34.472Z,97.10
2018-06-24T01:41:02.650Z,97.00
2018-06-24T01:43:30.854Z,97.10
2018-06-24T01:45:59.029Z,97.10
2018-06-24T01:48:27.197Z,97.20
2018-06-24T01:50:55.427Z,97.40
2018-06-24T01:53:23.598Z,97.60
2018-06-24T01:55:52.033Z,97.80
2018-06-24T01:58:20.498Z,98.00
2018-06-24T02:00:48.627Z,97.70
2018-06-24T02:03:16.869Z,97.40
2018-06-24T02:05:45.048Z,96.90
2018-06-24T02:08:13.689Z,97.00
2018-06-24T02:10:44.659Z,96.80
2018-06-24T02:13:12.817Z,96.90
2018-06-24T02:18:10.439Z,97.30
2018-06-24T02:20:38.527Z,97.40
2018-06-24T02:23:08.035Z,97.40
2018-06-24T02:25:36.221Z,97.40
2018-06-24T02:28:04.543Z,97.50
2018-06-24T02:30:32.710Z,97.50
2018-06-24T02:33:00.833Z,97.40
2018-06-24T02:35:28.995Z,97.20
2018-06-24T02:37:57.219Z,97.00
2018-06-24T02:40:25.387Z,97.10
2018-06-24T02:42:53.782Z,97.20
2018-06-24T02:45:22.488Z,96.80
2018-06-24T02:47:50.624Z,97.00
2018-06-24T02:50:18.776Z,97.20
2018-06-24T02:55:14.876Z,97.00
2018-06-24T02:57:43.109Z,97.50
2018-06-24T03:00:11.257Z,97.40
2018-06-24T03:02:40.337Z,97.50
2018-06-24T03:05:08.768Z,97.40
2018-06-24T03:07:37.919Z,97.60
2018-06-24T03:10:06.219Z,97.40
2018-06-24T03:12:34.490Z,97.30
2018-06-24T03:15:02.750Z,97.20
2018-06-24T03:17:30.977Z,97.40
2018-06-24T03:19:59.219Z,97.50
2018-06-24T03:22:27.490Z,96.90
2018-06-24T03:24:56.407Z,96.80
2018-06-24T03:27:24.561Z,96.90
2018-06-24T03:29:52.729Z,96.90
2018-06-24T03:32:20.885Z,97.00
2018-06-24T03:34:49.793Z,97.10
2018-06-24T03:37:17.912Z,97.00
2018-06-24T03:39:47.081Z,96.30
2018-06-24T03:42:16.757Z,96.10
2018-06-24T03:44:44.945Z,96.20
2018-06-24T03:49:41.109Z,96.10
2018-06-24T03:52:09.387Z,96.10
2018-06-24T03:54:37.589Z,96.20
2018-06-24T03:57:07.250Z,96.00
2018-06-24T03:59:35.555Z,96.20
2018-06-24T04:04:31.723Z,96.10
2018-06-24T04:06:59.838Z,95.90
2018-06-24T04:09:28.228Z,96.00
2018-06-24T04:11:56.386Z,96.00
2018-06-24T04:14:24.624Z,96.10
2018-06-24T04:16:52.772Z,95.90
2018-06-24T04:19:21.014Z,96.00
2018-06-24T04:21:49.180Z,95.90
2018-06-24T04:24:18.800Z,95.60
2018-06-24T04:26:46.959Z,95.50
2018-06-24T04:29:15.108Z,95.40
2018-06-24T04:31:43.386Z,95.70
2018-06-24T04:34:11.538Z,95.80
2018-06-24T04:36:39.863Z,96.20
2018-06-24T04:39:10.543Z,96.50
2018-06-24T04:41:38.676Z,96.70
2018-06-24T04:44:06.862Z,96.70
2018-06-24T04:46:35.058Z,96.60
2018-06-24T04:49:03.275Z,96.90
2018-06-24T04:51:31.658Z,96.70
2018-06-24T04:53:59.788Z,96.60
2018-06-24T04:56:27.972Z,96.50
2018-06-24T05:01:24.240Z,96.30
2018-06-24T05:03:52.420Z,96.00
2018-06-24T05:06:20.630Z,95.50
2018-06-24T05:08:48.798Z,95.80
2018-06-24T05:11:17.011Z,95.80
2018-06-24T05:13:45.236Z,95.90
2018-06-24T05:16:13.421Z,95.70
2018-06-24T05:18:41.607Z,96.10
2018-06-24T05:21:09.834Z,96.10
2018-06-24T05:23:38.053Z,96.00
2018-06-24T05:26:08.100Z,95.10
2018-06-24T05:28:36.273Z,95.00
2018-06-24T05:31:04.647Z,94.80
2018-06-24T05:33:32.882Z,94.80
2018-06-24T05:36:01.079Z,94.80
2018-06-24T05:38:29.273Z,94.40
2018-06-24T05:40:57.856Z,94.30
2018-06-24T05:43:26.095Z,94.20
2018-06-24T05:45:54.281Z,94.30
2018-06-24T05:48:22.481Z,93.80
2018-06-24T05:53:18.624Z,93.90
2018-06-24T05:55:46.811Z,93.60
2018-06-24T05:58:14.971Z,93.50
2018-06-24T06:03:11.189Z,93.60
2018-06-24T06:05:39.589Z,93.50
2018-06-24T06:08:07.778Z,93.30
2018-06-24T06:10:36.941Z,92.80
2018-06-24T06:13:05.693Z,93.10
2018-06-24T06:15:33.905Z,93.10
2018-06-24T06:18:02.247Z,93.00
2018-06-24T06:20:31.401Z,93.00
2018-06-24T06:23:00.173Z,92.90
2018-06-24T06:25:28.329Z,93.20
2018-06-24T06:27:57.019Z,92.90
2018-06-24T06:30:25.313Z,92.80
2018-06-24T06:32:53.383Z,92.90
2018-06-24T06:35:21.553Z,93.00
2018-06-24T06:37:49.707Z,93.10
2018-06-24T06:40:17.839Z,92.90
2018-06-24T06:42:46.321Z,93.90
2018-06-24T06:45:14.611Z,94.30
2018-06-24T06:47:43.279Z,93.70
2018-06-24T06:50:11.898Z,93.90
2018-06-24T06:52:40.087Z,94.00
2018-06-24T06:55:09.432Z,94.10
2018-06-24T06:57:37.737Z,93.60
2018-06-24T07:00:06.017Z,93.40
2018-06-24T07:02:34.786Z,92.90
2018-06-24T07:05:02.927Z,92.80
2018-06-24T07:07:31.679Z,92.60
2018-06-24T07:09:59.805Z,92.60
2018-06-24T07:12:27.972Z,92.80
2018-06-24T07:14:56.218Z,92.20
2018-06-24T07:17:24.413Z,92.70
2018-06-24T07:19:52.750Z,92.90
2018-06-24T07:22:20.946Z,93.30
2018-06-24T07:24:49.201Z,93.50
2018-06-24T07:27:17.397Z,93.80
2018-06-24T07:29:45.579Z,93.80
2018-06-24T07:32:14.029Z,93.40
2018-06-24T07:34:43.429Z,93.90
2018-06-24T07:37:12.149Z,93.50
2018-06-24T07:39:40.315Z,92.20
2018-06-24T07:42:08.510Z,92.30
2018-06-24T07:44:37.593Z,92.40
2018-06-24T07:47:05.803Z,92.00
2018-06-24T07:49:34.012Z,91.70
2018-06-24T07:52:02.605Z,91.70
2018-06-24T07:54:30.776Z,91.70
2018-06-24T07:56:59.032Z,92.00
2018-06-24T07:59:27.172Z,92.40
2018-06-24T08:01:55.324Z,92.20
2018-06-24T08:04:23.478Z,92.50
2018-06-24T08:06:51.625Z,92.40
2018-06-24T08:09:19.805Z,92.40
2018-06-24T08:11:47.989Z,92.60
2018-06-24T08:14:16.231Z,92.90
2018-06-24T08:16:44.446Z,92.80
2018-06-24T08:19:12.746Z,92.10
2018-06-24T08:21:41.608Z,92.40
2018-06-24T08:24:09.753Z,93.10
2018-06-24T08:26:37.876Z,93.50
2018-06-24T08:31:34.187Z,93.70
2018-06-24T08:34:02.336Z,93.50
2018-06-24T08:36:30.471Z,94.30
2018-06-24T08:41:27.324Z,94.90
2018-06-24T08:43:55.706Z,94.80
2018-06-24T08:46:25.014Z,94.80
2018-06-24T08:51:22.458Z,94.50
2018-06-24T08:53:50.634Z,94.40
2018-06-24T08:56:18.902Z,94.40
2018-06-24T08:58:47.084Z,94.20
2018-06-24T09:01:15.429Z,93.30
2018-06-24T09:03:44.154Z,93.10
2018-06-24T09:06:12.344Z,92.80
2018-06-24T09:08:40.544Z,92.90
2018-06-24T09:11:08.900Z,92.80
2018-06-24T09:13:37.171Z,92.00
2018-06-24T09:16:07.393Z,91.30
2018-06-24T09:18:35.545Z,91.30
2018-06-24T09:21:04.410Z,91.10
2018-06-24T09:23:33.008Z,90.60
2018-06-24T09:26:01.633Z,90.30
2018-06-24T09:28:29.805Z,89.00
2018-06-24T09:30:57.983Z,88.30
2018-06-24T09:33:26.322Z,88.90
2018-06-24T09:35:54.688Z,89.00
2018-06-24T09:38:23.431Z,89.00
2018-06-24T09:40:51.688Z,89.20
2018-06-24T09:43:23.732Z,89.50
2018-06-24T09:45:51.999Z,88.70
2018-06-24T09:48:20.183Z,89.00
2018-06-24T09:50:48.477Z,88.10
2018-06-24T09:53:17.423Z,87.40
2018-06-24T09:55:45.937Z,86.20
2018-06-24T09:58:14.098Z,84.00
2018-06-24T10:00:43.707Z,85.60
2018-06-24T10:03:11.997Z,85.50
2018-06-24T10:08:08.325Z,88.30
2018-06-24T10:10:36.937Z,90.00
2018-06-24T10:13:06.215Z,89.90
2018-06-24T10:15:34.611Z,87.40
2018-06-24T10:18:05.360Z,89.50
2018-06-24T10:20:33.592Z,87.60
2018-06-24T10:23:01.733Z,88.40
2018-06-24T10:25:30.382Z,86.90
2018-06-24T10:28:00.108Z,87.60
2018-06-24T10:35:24.287Z,84.60
2018-06-24T10:37:52.551Z,85.50
2018-06-24T10:40:21.232Z,85.80
2018-06-24T10:42:49.516Z,85.40
2018-06-24T10:45:17.703Z,85.00
2018-06-24T10:47:45.896Z,85.50
2018-06-24T10:50:14.408Z,83.60
2018-06-24T10:52:42.721Z,85.60
2018-06-24T10:55:11.156Z,85.20
2018-06-24T10:57:39.383Z,85.50
2018-06-24T11:00:09.271Z,83.70
2018-06-24T11:02:37.645Z,83.50
2018-06-24T11:05:05.911Z,81.30
2018-06-24T11:07:34.217Z,81.10
2018-06-24T11:10:02.533Z,81.90
2018-06-24T11:12:32.634Z,81.30
2018-06-24T11:15:02.600Z,84.90
2018-06-24T11:17:30.813Z,88.00
2018-06-24T11:19:59.709Z,87.00
2018-06-24T11:22:27.897Z,87.90
2018-06-24T11:24:57.013Z,85.40
2018-06-24T11:27:26.037Z,85.20
2018-06-24T11:29:54.215Z,84.60
2018-06-24T11:32:23.199Z,85.70
2018-06-24T11:34:52.479Z,86.10
2018-06-24T11:37:20.672Z,85.50
2018-06-24T11:42:17.191Z,83.30
2018-06-24T11:44:45.413Z,81.00
2018-06-24T11:47:13.743Z,80.90
2018-06-24T11:49:41.963Z,82.00
2018-06-24T11:52:10.130Z,82.50
2018-06-24T11:54:38.528Z,82.80
2018-06-24T11:57:06.752Z,81.50
2018-06-24T11:59:34.958Z,80.00
2018-06-24T12:02:03.876Z,79.60
2018-06-24T12:04:32.092Z,79.40
2018-06-24T12:07:00.300Z,78.50
2018-06-24T12:09:28.486Z,79.20
2018-06-24T12:11:57.118Z,79.50
2018-06-24T12:14:25.356Z,79.00
2018-06-24T12:16:53.904Z,79.10
2018-06-24T12:19:22.242Z,79.00
2018-06-24T12:21:50.446Z,78.10
2018-06-24T12:24:18.672Z,76.60
2018-06-24T12:26:47.962Z,76.90
2018-06-24T12:29:16.162Z,78.00
2018-06-24T12:31:44.450Z,77.80
2018-06-24T12:34:13.504Z,77.70
2018-06-24T12:36:43.238Z,78.10
2018-06-24T12:39:17.868Z,77.40
2018-06-24T12:41:46.258Z,75.40
2018-06-24T12:44:14.520Z,74.30
2018-06-24T12:46:42.678Z,76.10
2018-06-24T12:51:39.744Z,77.50
2018-06-24T12:54:08.044Z,76.80
2018-06-24T12:56:36.251Z,77.90
2018-06-24T12:59:04.879Z,79.70
2018-06-24T13:01:34.376Z,83.50
2018-06-24T13:04:02.574Z,83.10
2018-06-24T13:06:30.738Z,81.00
2018-06-24T13:08:58.898Z,80.60
2018-06-24T13:11:27.119Z,79.20
2018-06-24T13:13:55.920Z,78.20
2018-06-24T13:16:25.840Z,77.60
2018-06-24T13:18:54.396Z,76.60
2018-06-24T13:21:22.673Z,76.10
2018-06-24T13:23:51.915Z,74.80
2018-06-24T13:26:20.106Z,74.80
2018-06-24T13:28:48.336Z,75.10
2018-06-24T13:31:16.726Z,75.90
2018-06-24T13:33:47.503Z,75.50
2018-06-24T13:36:15.738Z,75.70
2018-06-24T13:38:45.224Z,75.30
2018-06-24T13:41:13.669Z,76.00
2018-06-24T13:43:41.858Z,74.80
2018-06-24T13:46:10.048Z,75.00
2018-06-24T13:48:38.178Z,75.70
2018-06-24T13:51:06.412Z,76.00
2018-06-24T13:53:34.803Z,75.30
2018-06-24T13:56:03.096Z,75.10
2018-06-24T13:58:31.226Z,75.50
2018-06-24T14:00:59.427Z,74.90
2018-06-24T14:03:27.760Z,74.80
2018-06-24T14:05:56.971Z,75.00
2018-06-24T14:08:25.196Z,74.40
2018-06-24T14:10:53.558Z,75.70
2018-06-24T14:13:21.765Z,76.50
2018-06-24T14:15:50.066Z,76.80
2018-06-24T14:20:54.319Z,76.40
2018-06-24T14:23:27.546Z,75.40
2018-06-24T14:26:01.465Z,74.80
2018-06-24T14:28:37.552Z,76.10
2018-06-24T14:31:06.688Z,76.40
2018-06-24T14:33:42.659Z,76.60
2018-06-24T14:36:16.411Z,76.20
2018-06-24T14:38:46.609Z,75.40
2018-06-24T14:41:19.343Z,76.00
2018-06-24T14:43:53.040Z,75.50
2018-06-24T14:46:24.976Z,76.00
2018-06-24T14:48:53.203Z,74.90
2018-06-24T14:51:21.376Z,75.00
2018-06-24T14:53:49.689Z,74.60
2018-06-24T14:56:18.460Z,75.00
2018-06-24T15:01:14.915Z,73.20
2018-06-24T15:06:11.487Z,74.30
2018-06-24T15:08:39.806Z,73.90
2018-06-24T15:11:08.679Z,74.10
2018-06-24T15:13:36.893Z,74.50
2018-06-24T15:16:05.054Z,74.00
2018-06-24T15:18:33.236Z,74.00
2018-06-24T15:21:02.229Z,74.40
2018-06-24T15:23:30.437Z,73.80
2018-06-24T15:25:58.797Z,73.90
2018-06-24T15:28:26.989Z,74.70
2018-06-24T15:30:55.131Z,74.00
2018-06-24T15:33:23.327Z,73.80
2018-06-24T15:35:51.493Z,74.30
2018-06-24T15:38:19.674Z,74.40
2018-06-24T15:40:48.113Z,74.90
2018-06-24T15:43:16.273Z,75.50
2018-06-24T15:45:44.613Z,76.30
2018-06-24T15:48:12.776Z,75.70
2018-06-24T15:50:41.954Z,76.10
2018-06-24T15:53:10.217Z,76.70
2018-06-24T15:55:38.409Z,77.50
2018-06-24T15:58:06.594Z,77.90
2018-06-24T16:00:34.901Z,79.10
2018-06-24T16:03:03.153Z,79.10
2018-06-24T16:05:31.854Z,79.90
2018-06-24T16:08:00.249Z,80.50
2018-06-24T16:10:29.253Z,80.70
2018-06-24T16:12:58.242Z,81.40
2018-06-24T16:17:56.657Z,83.20
2018-06-24T16:20:24.871Z,83.90
2018-06-24T16:22:53.978Z,84.40
2018-06-24T16:25:22.122Z,84.90
2018-06-24T16:27:50.518Z,85.60
2018-06-24T16:30:18.796Z,87.00
2018-06-24T16:32:48.256Z,87.90
2018-06-24T16:35:22.794Z,88.30
2018-06-24T16:37:51.198Z,90.10
2018-06-24T16:40:19.559Z,90.60
2018-06-24T16:42:48.590Z,90.90
2018-06-24T16:45:16.728Z,91.20
2018-06-24T16:47:45.030Z,91.20
2018-06-24T16:50:13.429Z,91.00
2018-06-24T16:52:42.280Z,90.90
2018-06-24T16:55:11.300Z,91.10
2018-06-24T16:57:39.646Z,91.00
2018-06-24T17:00:08.216Z,90.80
2018-06-24T17:02:36.676Z,90.70
2018-06-24T17:05:05.080Z,90.70
2018-06-24T17:07:33.411Z,90.60
2018-06-24T17:10:01.643Z,90.40
2018-06-24T17:12:30.081Z,90.40
2018-06-24T17:14:59.272Z,90.30
2018-06-24T17:17:27.470Z,90.00
2018-06-24T17:19:55.698Z,89.40
2018-06-24T17:22:23.815Z,89.10
2018-06-24T17:27:20.628Z,89.10
2018-06-24T17:29:48.786Z,89.70
2018-06-24T17:32:16.940Z,90.00
2018-06-24T17:34:45.130Z,90.60
2018-06-24T17:37:13.286Z,91.60
2018-06-24T17:39:41.670Z,92.30
2018-06-24T17:42:09.856Z,93.10
2018-06-24T17:44:37.991Z,93.50
2018-06-24T17:47:06.462Z,93.50
2018-06-24T17:49:34.945Z,92.90
2018-06-24T17:52:03.618Z,93.10
2018-06-24T17:54:31.941Z,92.90
2018-06-24T17:57:00.244Z,92.90
2018-06-24T17:59:28.423Z,92.90
2018-06-24T18:01:56.570Z,93.30
2018-06-24T18:04:24.791Z,93.30
2018-06-24T18:06:52.933Z,93.20
2018-06-24T18:09:21.952Z,92.90
2018-06-24T18:11:50.274Z,92.70
2018-06-24T18:14:19.070Z,92.60
2018-06-24T18:16:47.631Z,92.70
2018-06-24T18:19:15.924Z,92.40
2018-06-24T18:21:44.326Z,92.50
2018-06-24T18:24:12.835Z,92.80
2018-06-24T18:26:41.024Z,93.00
2018-06-24T18:29:09.278Z,93.10
2018-06-24T18:31:37.545Z,93.20
2018-06-24T18:34:06.600Z,93.40
2018-06-24T18:36:35.422Z,93.40
2018-06-24T18:39:06.043Z,93.70
2018-06-24T18:41:36.259Z,93.80
2018-06-24T18:44:06.020Z,93.70
2018-06-24T18:46:36.927Z,93.60
2018-06-24T18:49:05.298Z,93.70
2018-06-24T18:51:34.280Z,93.90
2018-06-24T18:54:03.591Z,94.10
2018-06-24T18:56:32.419Z,94.30
2018-06-24T18:59:01.728Z,94.30
2018-06-24T19:01:29.971Z,94.20
2018-06-24T19:04:00.101Z,94.20
2018-06-24T19:08:56.345Z,94.30
2018-06-24T19:11:24.631Z,94.30
2018-06-24T19:13:53.251Z,94.20
2018-06-24T19:16:21.463Z,94.10
2018-06-24T19:18:49.767Z,94.10
2018-06-24T19:21:18.550Z,94.20
2018-06-24T19:23:48.624Z,94.10
2018-06-24T19:26:16.887Z,94.10
2018-06-24T19:28:45.253Z,94.30
2018-06-24T19:33:44.026Z,94.50
2018-06-24T19:36:12.248Z,94.40
2018-06-24T19:41:08.853Z,94.30
2018-06-24T19:43:37.082Z,94.30
2018-06-24T19:46:05.288Z,94.30
2018-06-24T19:48:33.535Z,94.20
2018-06-24T19:51:01.913Z,94.30
2018-06-24T19:53:30.169Z,94.40
2018-06-24T19:55:58.641Z,94.40
2018-06-24T19:58:28.394Z,94.40
2018-06-24T20:00:56.636Z,94.70
2018-06-24T20:03:24.887Z,94.20
2018-06-24T20:05:53.236Z,94.30
2018-06-24T20:08:21.393Z,94.20
2018-06-24T20:10:51.945Z,94.30
2018-06-24T20:13:20.265Z,94.40
2018-06-24T20:15:48.675Z,94.40
2018-06-24T20:18:16.853Z,94.40
2018-06-24T20:20:45.570Z,94.40
2018-06-24T20:23:13.812Z,94.40
2018-06-24T20:25:41.978Z,94.40
2018-06-24T20:28:10.248Z,94.40
2018-06-24T20:30:38.543Z,94.20
2018-06-24T20:33:06.826Z,94.30
2018-06-24T20:35:35.178Z,94.20
2018-06-24T20:38:03.355Z,94.20
2018-06-24T20:40:31.567Z,94.20
2018-06-24T20:42:59.723Z,94.20
2018-06-24T20:45:27.950Z,94.20
2018-06-24T20:47:56.300Z,94.50
2018-06-24T20:50:24.518Z,94.30
2018-06-24T20:52:53.183Z,94.30
2018-06-24T20:55:21.361Z,94.20
2018-06-24T20:57:49.754Z,94.30
2018-06-24T21:00:17.922Z,94.40
2018-06-24T21:02:46.717Z,94.40
2018-06-24T21:05:14.886Z,94.30
2018-06-24T21:07:43.275Z,94.30
2018-06-24T21:10:11.432Z,94.50
2018-06-24T21:15:07.750Z,94.40
2018-06-24T21:17:35.900Z,94.40
2018-06-24T21:20:04.088Z,94.40
2018-06-24T21:22:32.893Z,94.40
2018-06-24T21:25:01.077Z,94.60
2018-06-24T21:27:29.181Z,94.50
2018-06-24T21:29:58.334Z,94.50
2018-06-24T21:32:26.508Z,94.50
2018-06-24T21:34:54.750Z,94.50
2018-06-24T21:37:22.964Z,94.40
2018-06-24T21:39:51.204Z,94.40
2018-06-24T21:42:19.417Z,94.50
2018-06-24T21:44:47.606Z,94.40
2018-06-24T21:47:15.804Z,94.40
2018-06-24T21:49:43.964Z,94.50
2018-06-24T21:52:12.486Z,94.50
2018-06-24T21:54:41.808Z,94.50
2018-06-24T21:57:10.087Z,94.50
2018-06-24T21:59:38.284Z,94.50
2018-06-24T22:02:07.994Z,94.50
2018-06-24T22:04:36.180Z,94.50
2018-06-24T22:07:04.832Z,94.60
2018-06-24T22:09:33.106Z,94.70
2018-06-24T22:12:01.682Z,94.80
2018-06-24T22:14:30.700Z,95.00
2018-06-24T22:16:58.978Z,94.70
2018-06-24T22:19:27.998Z,94.80
2018-06-24T22:21:57.887Z,94.70
2018-06-24T22:24:26.156Z,94.70
2018-06-24T22:26:54.355Z,94.80
2018-06-24T22:29:24.422Z,94.80
2018-06-24T22:31:52.862Z,94.70
2018-06-24T22:34:21.720Z,94.80
2018-06-24T22:36:50.564Z,95.00
2018-06-24T22:39:18.802Z,94.70
2018-06-24T22:41:47.644Z,94.70
2018-06-24T22:44:15.981Z,94.70
2018-06-24T22:46:44.199Z,94.80
2018-06-24T22:51:40.413Z,95.00
2018-06-24T22:54:08.928Z,95.00
2018-06-24T22:56:38.090Z,95.10
2018-06-24T22:59:17.877Z,95.10
2018-06-24T23:01:47.217Z,95.00
2018-06-24T23:04:15.615Z,95.00
2018-06-24T23:06:44.014Z,95.20
2018-06-24T23:11:40.890Z,95.30
2018-06-24T23:14:09.009Z,95.20
2018-06-24T23:19:05.149Z,95.10
2018-06-24T23:24:01.417Z,95.10
2018-06-24T23:26:29.552Z,95.20
2018-06-24T23:28:57.784Z,95.10
2018-06-24T23:31:27.514Z,95.10
2018-06-24T23:33:55.644Z,95.20
2018-06-24T23:36:23.824Z,95.20
2018-06-24T23:38:52.048Z,95.20
2018-06-24T23:41:20.889Z,95.20
2018-06-24T23:43:49.166Z,95.30
2018-06-24T23:46:17.335Z,95.30
2018-06-24T23:48:48.124Z,95.30
2018-06-24T23:51:17.663Z,95.40
2018-06-24T23:53:45.854Z,95.40
2018-06-24T23:56:14.001Z,95.40
2018-06-24T23:58:45.862Z,95.50
